Time;durP1;ratioP1;P1;durP2;ratioP2;P2;SDS_P1;SDS_P2;PMS_P1;PMS_P2;Temp;Humidity;BMP_temperature;BMP_pressure;BME280_temperature;BME280_humidity;BME280_pressure;Samples;Min_cycle;Max_cycle;Signal;HPM_P1;HPM_P2
2023/10/07 00:01:49;;;;;;;39.55;24.95;;;;;;;20.32;63.88;102012.66;6060502;23;20097;-80
2023/10/07 00:04:21;;;;;;;45.90;25.80;;;;;;;20.47;63.45;102038.78;6043609;23;20306;-81
2023/10/07 00:06:49;;;;;;;40.03;24.88;;;;;;;20.52;63.77;102042.84;6043717;23;20292;-81
2023/10/07 00:09:22;;;;;;;40.15;24.70;;;;;;;20.39;63.52;102009.13;6043854;23;20362;-81
2023/10/07 00:11:49;;;;;;;38.67;22.77;;;;;;;20.46;63.95;102028.16;6050721;23;20037;-81
2023/10/07 00:14:15;;;;;;;43.70;24.63;;;;;;;20.46;63.71;102025.44;6047374;23;20023;-80
2023/10/07 00:16:46;;;;;;;37.95;24.30;;;;;;;20.53;63.79;102031.88;6055838;23;20029;-80
2023/10/07 00:19:13;;;;;;;38.40;24.17;;;;;;;20.31;63.73;101992.91;6049808;23;20018;-80
2023/10/07 00:21:55;;;;;;;40.08;25.00;;;;;;;20.50;63.91;102033.03;6049310;23;20238;-80
2023/10/07 00:24:43;;;;;;;40.58;24.08;;;;;;;20.30;63.67;101995.78;6057056;23;20023;-80
2023/10/07 00:27:37;;;;;;;37.90;25.10;;;;;;;20.44;64.10;102022.09;6038795;23;20506;-79
2023/10/07 00:30:15;;;;;;;35.25;21.92;;;;;;;20.43;64.19;101998.81;6046541;23;20521;-80
2023/10/07 00:32:45;;;;;;;39.03;23.83;;;;;;;20.25;63.64;101980.09;6069676;23;20065;-81
2023/10/07 00:35:16;;;;;;;42.17;24.30;;;;;;;20.48;64.09;102015.34;6025604;23;20277;-79
2023/10/07 00:37:48;;;;;;;39.63;24.92;;;;;;;20.39;63.81;102002.84;5992185;23;20334;-79
2023/10/07 00:40:32;;;;;;;36.42;23.42;;;;;;;20.41;64.00;102008.94;6028067;23;20415;-80
2023/10/07 00:42:59;;;;;;;32.73;23.03;;;;;;;20.24;63.98;101975.69;6051305;23;20335;-79
2023/10/07 00:45:26;;;;;;;36.33;22.73;;;;;;;20.34;63.99;101994.41;6040940;23;20337;-79
2023/10/07 00:47:54;;;;;;;36.10;24.23;;;;;;;20.41;63.72;102000.84;6046623;23;20394;-79
2023/10/07 00:50:25;;;;;;;38.25;25.02;;;;;;;20.44;63.38;102005.91;6051858;23;20071;-79
2023/10/07 00:52:58;;;;;;;36.13;24.23;;;;;;;20.28;63.25;101960.88;6017044;23;20374;-80
2023/10/07 00:55:29;;;;;;;41.60;24.73;;;;;;;20.47;63.11;101986.69;6003625;23;20760;-80
2023/10/07 01:00:48;;;;;;;37.15;23.73;;;;;;;20.37;63.54;101977.94;5979849;23;20427;-79
2023/10/07 01:03:47;;;;;;;35.38;23.80;;;;;;;20.37;63.50;101975.22;5993332;23;20391;-81
2023/10/07 01:06:32;;;;;;;33.88;22.55;;;;;;;20.40;63.46;101974.88;5985439;23;20507;-80
2023/10/07 01:09:11;;;;;;;39.72;25.23;;;;;;;20.46;63.54;101985.00;5996646;23;20026;-79
2023/10/07 01:11:40;;;;;;;38.22;24.08;;;;;;;20.31;63.71;101951.63;5979575;23;20452;-79
2023/10/07 01:14:10;;;;;;;36.22;24.73;;;;;;;20.46;63.84;101987.69;6054903;23;20025;-79
2023/10/07 01:16:43;;;;;;;42.85;24.58;;;;;;;20.34;63.76;101967.44;6042562;23;20026;-80
2023/10/07 01:21:57;;;;;;;43.90;23.58;;;;;;;20.36;64.05;101976.22;6063800;23;20489;-80
2023/10/07 01:24:59;;;;;;;34.88;24.33;;;;;;;20.05;64.23;101937.28;6046936;23;20030;-79
2023/10/07 01:27:34;;;;;;;39.47;24.50;;;;;;;20.33;64.37;101976.56;6050640;23;20027;-81
2023/10/07 01:30:15;;;;;;;37.63;24.27;;;;;;;20.16;64.15;101960.38;6045375;23;20375;-81
2023/10/07 01:33:35;;;;;;;41.72;23.92;;;;;;;20.26;64.24;101971.00;6055325;23;20026;-80
2023/10/07 01:35:53;;;;;;;36.85;23.98;;;;;;;20.25;64.37;101972.84;6052152;23;20018;-79
2023/10/07 01:38:20;;;;;;;35.53;23.17;;;;;;;20.07;64.16;101945.19;6041468;23;20042;-80
2023/10/07 01:43:16;;;;;;;36.80;24.20;;;;;;;20.24;64.55;101959.53;6052981;23;20018;-79
2023/10/07 01:45:43;;;;;;;37.55;23.50;;;;;;;20.01;64.52;101935.91;6048821;23;20459;-79
2023/10/07 01:48:10;;;;;;;36.33;24.60;;;;;;;19.93;64.67;101924.25;6049838;23;20027;-80
2023/10/07 01:50:40;;;;;;;42.65;23.83;;;;;;;20.16;64.99;101965.75;6033310;23;20462;-79
2023/10/07 01:53:14;;;;;;;39.58;24.70;;;;;;;19.95;64.81;101933.03;6044155;23;20061;-80
2023/10/07 01:55:48;;;;;;;36.15;24.10;;;;;;;20.03;65.06;101949.25;6019761;23;20101;-79
2023/10/07 01:58:19;;;;;;;36.78;23.80;;;;;;;19.82;65.21;101907.41;5985057;23;20034;-80
2023/10/07 02:00:51;;;;;;;36.58;24.92;;;;;;;19.79;65.18;101899.66;6000731;23;20018;-79
2023/10/07 02:03:23;;;;;;;39.08;25.52;;;;;;;20.02;65.08;101945.66;6057848;23;20213;-80
2023/10/07 02:05:54;;;;;;;40.40;25.15;;;;;;;19.96;65.04;101938.28;6061090;23;20101;-81
2023/10/07 02:08:22;;;;;;;36.50;24.65;;;;;;;19.46;65.14;101850.22;6072286;23;20072;-80
2023/10/07 02:10:59;;;;;;;47.25;26.38;;;;;;;19.76;65.29;101905.41;6067093;23;20097;-80
2023/10/07 02:13:29;;;;;;;40.58;23.70;;;;;;;20.00;65.27;101950.41;6065501;23;20029;-80
2023/10/07 02:15:57;;;;;;;37.15;23.60;;;;;;;19.96;65.58;101935.56;6052005;23;20511;-80
2023/10/07 02:18:27;;;;;;;38.53;24.92;;;;;;;19.76;65.28;101900.00;6052479;23;20019;-79
2023/10/07 02:21:08;;;;;;;35.58;24.30;;;;;;;19.84;65.29;101913.47;6048227;23;20411;-80
2023/10/07 02:23:40;;;;;;;45.20;25.65;;;;;;;19.95;65.21;101930.34;6057155;23;20266;-79
2023/10/07 02:26:15;;;;;;;38.35;25.42;;;;;;;19.96;65.22;101932.03;6047831;23;20278;-79
2023/10/07 02:28:44;;;;;;;41.10;25.10;;;;;;;20.02;64.98;101934.88;6045779;23;20080;-78
2023/10/07 02:31:19;;;;;;;39.35;26.42;;;;;;;19.67;65.05;101876.72;6092849;23;20378;-80
2023/10/07 02:33:52;;;;;;;36.95;23.70;;;;;;;19.97;65.03;101929.16;6063833;23;20044;-79
2023/10/07 02:36:36;;;;;;;;;;;;;;;19.95;65.50;101930.34;6035129;23;20109;-79
2023/10/07 02:42:11;;;;;;;43.85;24.42;;;;;;;19.91;65.71;101920.91;6023090;23;20482;-80
2023/10/07 02:44:41;;;;;;;40.55;25.27;;;;;;;19.90;65.76;101921.91;6044863;23;20458;-79
2023/10/07 02:47:11;;;;;;;38.13;24.95;;;;;;;19.94;65.87;101928.66;6043926;23;20102;-79
2023/10/07 02:49:47;;;;;;;38.10;24.08;;;;;;;19.75;65.63;101892.91;5980969;23;20023;-80
2023/10/07 02:52:16;;;;;;;43.58;25.33;;;;;;;19.91;65.95;101937.94;6058403;23;20078;-79
2023/10/07 02:54:45;;;;;;;37.88;26.08;;;;;;;19.84;66.08;101926.13;6058670;23;20022;-80
2023/10/07 02:57:34;;;;;;;42.45;27.52;;;;;;;19.87;65.87;101930.34;6053278;23;20022;-79
2023/10/07 03:00:13;;;;;;;42.63;26.30;;;;;;;19.72;66.10;101913.97;6041499;23;20496;-79
2023/10/07 03:02:50;;;;;;;40.53;26.55;;;;;;;18.99;66.27;101800.44;6069212;23;20030;-81
2023/10/07 03:05:27;;;;;;;43.78;28.10;;;;;;;19.60;66.12;101905.31;6049046;23;20030;-81
2023/10/07 03:08:02;;;;;;;39.13;26.80;;;;;;;19.29;66.29;101849.34;6085849;23;20578;-80
2023/10/07 03:10:54;;;;;;;38.45;25.80;;;;;;;19.83;66.22;101932.50;6055978;23;20065;-80
2023/10/07 03:13:22;;;;;;;42.40;27.13;;;;;;;19.65;66.06;101908.34;6034658;23;20026;-80
2023/10/07 03:18:49;;;;;;;44.13;27.30;;;;;;;19.90;65.00;101924.59;5991542;23;20339;-81
2023/10/07 03:24:28;;;;;;;46.22;27.23;;;;;;;19.81;64.74;101902.22;5999450;23;20446;-80
2023/10/07 03:27:10;;;;;;;;;;;;;;;19.97;65.13;101928.31;5991145;23;20650;-78
2023/10/07 03:30:12;;;;;;;39.28;26.65;;;;;;;19.99;65.12;101931.69;5988179;23;20344;-80
2023/10/07 03:32:55;;;;;;;44.15;27.42;;;;;;;20.02;64.75;101934.06;6003563;23;20486;-81
2023/10/07 03:36:07;;;;;;;47.80;29.00;;;;;;;20.00;65.12;101933.38;6030296;23;20022;-81
2023/10/07 03:38:32;;;;;;;38.45;27.25;;;;;;;19.67;65.30;101876.72;5984372;23;20273;-79
2023/10/07 03:41:09;;;;;;;45.17;26.67;;;;;;;19.82;65.48;101912.81;5998122;23;20634;-81
2023/10/07 03:43:42;;;;;;;49.53;28.35;;;;;;;19.93;65.66;101932.34;6011620;23;20261;-80
2023/10/07 03:46:09;;;;;;;42.95;27.30;;;;;;;19.79;65.77;101904.22;6040065;23;20251;-80
2023/10/07 03:48:39;;;;;;;46.47;28.88;;;;;;;19.72;65.75;101895.09;6064156;23;20014;-80
2023/10/07 03:51:12;;;;;;;43.55;27.00;;;;;;;19.79;65.89;101904.22;6059154;23;20045;-79
2023/10/07 03:53:45;;;;;;;43.72;26.65;;;;;;;19.83;65.75;101916.34;6049270;23;20022;-79
2023/10/07 03:56:13;;;;;;;41.83;28.05;;;;;;;19.80;66.14;101909.44;6035309;23;20473;-81
2023/10/07 03:58:43;;;;;;;50.92;29.17;;;;;;;19.73;66.34;101911.09;6029749;23;20457;-79
2023/10/07 04:01:18;;;;;;;44.97;27.92;;;;;;;19.74;66.48;101918.19;6029851;23;20242;-79
2023/10/07 04:04:01;;;;;;;42.65;28.05;;;;;;;19.60;66.31;101905.31;5964128;23;20019;-81
2023/10/07 04:06:34;;;;;;;41.22;26.80;;;;;;;19.68;66.86;101924.22;5979935;23;20094;-81
2023/10/07 04:09:07;;;;;;;39.40;27.40;;;;;;;19.67;66.75;101922.50;5997249;23;20122;-82
2023/10/07 04:11:36;;;;;;;49.10;28.85;;;;;;;19.66;66.80;101923.53;6026227;23;20083;-81
2023/10/07 04:16:52;;;;;;;37.97;26.65;;;;;;;19.51;67.25;101901.75;5990238;23;20343;-80
2023/10/07 04:21:46;;;;;;;48.03;27.08;;;;;;;19.59;67.09;101915.25;6007994;23;20478;-79
2023/10/07 04:24:13;;;;;;;42.15;26.70;;;;;;;19.59;67.24;101925.19;5992144;23;20026;-80
2023/10/07 04:26:42;;;;;;;49.17;29.92;;;;;;;19.34;67.53;101895.47;6015512;23;20115;-79
2023/10/07 04:29:16;;;;;;;42.75;29.25;;;;;;;19.03;67.18;101849.44;5991640;23;20263;-80
2023/10/07 04:31:47;;;;;;;52.20;29.38;;;;;;;19.34;67.37;101900.00;5991850;23;20512;-80
2023/10/07 04:34:18;;;;;;;40.22;27.55;;;;;;;19.45;67.46;101917.72;5994485;23;20079;-79
2023/10/07 04:39:38;;;;;;;43.60;27.23;;;;;;;19.29;67.62;101892.41;5991615;23;20082;-81
2023/10/07 04:42:13;;;;;;;44.85;28.20;;;;;;;19.37;67.49;101905.94;5995115;23;20489;-81
2023/10/07 04:52:50;;;;;;;39.55;27.45;;;;;;;19.37;67.12;101910.44;6001221;23;20030;-81
2023/10/07 04:55:26;;;;;;;40.17;27.52;;;;;;;19.28;67.22;101893.44;5982224;23;20024;-81
2023/10/07 05:03:11;;;;;;;41.42;28.42;;;;;;;19.28;67.60;101908.75;6037060;23;20331;-81
2023/10/07 05:05:45;;;;;;;42.92;29.92;;;;;;;19.39;67.20;101925.47;6049739;23;20063;-79
2023/10/07 05:08:16;;;;;;;50.67;29.25;;;;;;;19.23;67.43;101898.47;6059723;23;20064;-79
2023/10/07 05:10:52;;;;;;;51.35;32.65;;;;;;;19.31;67.37;101919.19;6053087;23;20038;-80
2023/10/07 05:13:21;;;;;;;48.40;28.77;;;;;;;19.41;67.36;101923.41;6074935;23;20045;-80
2023/10/07 05:15:48;;;;;;;43.22;29.55;;;;;;;19.31;67.11;101911.94;6059910;23;20025;-79
2023/10/07 05:18:17;;;;;;;48.33;28.98;;;;;;;19.36;67.34;101928.44;6055748;23;20041;-79
2023/10/07 05:20:48;;;;;;;47.03;28.83;;;;;;;19.40;67.02;101932.53;6043987;23;20030;-79
2023/10/07 05:23:16;;;;;;;47.90;29.57;;;;;;;19.07;67.08;101871.47;6087429;23;20430;-79
2023/10/07 05:25:50;;;;;;;47.05;29.17;;;;;;;19.30;66.96;101907.56;6052805;23;20550;-80
2023/10/07 05:28:22;;;;;;;46.22;28.55;;;;;;;19.43;67.01;101928.66;6050191;23;20058;-80
2023/10/07 05:30:53;;;;;;;;;;;;;;;19.47;67.02;101943.50;6059325;23;20022;-80
2023/10/07 05:33:32;;;;;;;42.20;27.58;;;;;;;19.33;67.24;101920.72;6049003;23;20237;-80
2023/10/07 05:36:13;;;;;;;51.17;28.83;;;;;;;19.51;66.80;101944.00;6060170;23;20026;-79
2023/10/07 05:38:44;;;;;;;;;;;;;;;19.49;66.82;101946.88;6050710;23;20481;-79
2023/10/07 05:41:15;;;;;;;51.42;28.55;;;;;;;19.53;66.77;101955.47;6055655;23;20322;-78
2023/10/07 05:43:48;;;;;;;45.25;29.25;;;;;;;19.36;67.25;101922.22;6061835;23;20089;-78
2023/10/07 05:46:17;;;;;;;41.67;27.25;;;;;;;19.33;67.05;101931.47;6065373;23;20062;-77
2023/10/07 05:48:48;;;;;;;42.25;28.85;;;;;;;19.54;67.41;101949.06;6052075;23;20327;-80
2023/10/07 05:51:16;;;;;;;46.05;29.38;;;;;;;19.18;67.72;101904.31;6065156;23;20328;-78
2023/10/07 05:53:51;;;;;;;42.08;28.65;;;;;;;19.51;67.68;101955.59;6069966;23;20454;-80
2023/10/07 05:56:18;;;;;;;47.65;28.10;;;;;;;19.50;68.01;101947.72;6062473;23;20189;-79
2023/10/07 05:58:45;;;;;;;45.42;29.83;;;;;;;19.47;68.01;101951.56;6042197;23;20018;-80
2023/10/07 06:01:14;;;;;;;48.00;28.98;;;;;;;19.54;67.81;101967.91;6068154;23;20747;-79
2023/10/07 06:03:43;;;;;;;43.47;29.00;;;;;;;19.55;67.86;101967.75;6052429;23;20390;-79
2023/10/07 06:06:10;;;;;;;47.05;29.35;;;;;;;19.59;67.97;101968.28;6062668;23;20110;-79
2023/10/07 06:08:37;;;;;;;43.80;27.83;;;;;;;19.68;67.85;101972.72;6054206;23;20045;-80
2023/10/07 06:11:04;;;;;;;52.38;30.58;;;;;;;19.65;67.64;101965.75;6067131;23;20022;-80
2023/10/07 06:13:33;;;;;;;50.90;30.88;;;;;;;19.71;67.33;101983.19;6054772;23;20370;-80
2023/10/07 06:16:04;;;;;;;44.05;30.25;;;;;;;19.69;67.55;101969.03;6050289;23;20022;-80
2023/10/07 06:18:34;;;;;;;53.08;28.80;;;;;;;19.65;67.77;101973.00;6062992;23;20078;-81
2023/10/07 06:23:49;;;;;;;44.45;28.83;;;;;;;19.57;66.84;101954.13;6053154;23;20085;-80
2023/10/07 06:26:16;;;;;;;48.10;30.45;;;;;;;19.80;66.81;101998.34;6076572;23;20114;-79
2023/10/07 06:28:48;;;;;;;50.78;28.77;;;;;;;19.82;66.70;102001.72;6068384;23;20045;-79
2023/10/07 06:31:22;;;;;;;50.42;30.85;;;;;;;19.33;66.29;101907.25;6069975;23;20025;-81
2023/10/07 06:34:12;;;;;;;44.85;28.63;;;;;;;19.76;65.96;101983.53;6067080;23;20386;-79
2023/10/07 06:36:40;;;;;;;45.60;30.73;;;;;;;19.77;65.93;101995.97;6053605;23;20022;-80
2023/10/07 06:39:07;;;;;;;51.35;31.77;;;;;;;19.78;65.81;102000.38;6068577;23;20489;-78
2023/10/07 06:41:36;;;;;;;44.00;29.20;;;;;;;19.49;66.22;101968.41;6068827;23;20082;-79
2023/10/07 06:44:08;;;;;;;48.70;31.10;;;;;;;19.73;66.09;101997.31;6093581;23;20391;-80
2023/10/07 06:46:44;;;;;;;46.50;28.90;;;;;;;19.77;66.03;102008.63;6059302;23;20431;-79
2023/10/07 06:49:19;;;;;;;58.10;31.05;;;;;;;19.71;66.62;102004.72;6072764;23;20474;-79
2023/10/07 06:51:53;;;;;;;51.28;30.90;;;;;;;19.81;66.23;102020.75;6048987;23;20019;-79
2023/10/07 06:54:31;;;;;;;52.63;32.47;;;;;;;19.84;66.11;102025.81;6039632;23;20023;-79
2023/10/07 06:57:10;;;;;;;50.05;32.38;;;;;;;19.80;66.34;102019.91;6045090;23;20129;-78
2023/10/07 06:59:40;;;;;;;55.58;31.95;;;;;;;19.83;66.07;102019.59;6042674;23;20018;-80
2023/10/07 07:02:11;;;;;;;55.13;32.78;;;;;;;19.93;66.27;102026.69;6039386;23;20022;-81
2023/10/07 07:04:42;;;;;;;52.33;30.88;;;;;;;19.15;66.17;101903.78;6062713;23;20023;-81
2023/10/07 07:07:16;;;;;;;51.97;31.38;;;;;;;19.98;66.09;102033.28;6058389;23;20082;-80
2023/10/07 07:12:23;;;;;;;41.63;30.10;;;;;;;20.10;66.09;102036.53;6067873;23;20093;-81
2023/10/07 07:15:04;;;;;;;48.45;33.03;;;;;;;20.05;66.31;102025.41;6058272;23;20022;-81
2023/10/07 07:17:43;;;;;;;50.53;33.05;;;;;;;19.92;66.50;101995.34;6053004;23;20029;-79
2023/10/07 07:22:44;;;;;;;47.60;31.38;;;;;;;20.04;66.88;102013.75;6048506;23;20027;-79
2023/10/07 07:27:58;;;;;;;52.15;31.10;;;;;;;20.15;66.25;102011.78;6063263;23;20026;-80
2023/10/07 07:30:32;;;;;;;50.10;32.45;;;;;;;20.06;65.63;101986.63;6063780;23;20438;-79
2023/10/07 07:33:07;;;;;;;59.28;33.50;;;;;;;20.40;65.05;102031.53;6061915;23;20526;-79
2023/10/07 07:35:40;;;;;;;50.58;32.33;;;;;;;20.58;65.26;102059.22;6057689;23;20021;-79
2023/10/07 07:41:06;;;;;;;55.03;32.67;;;;;;;20.69;66.36;102058.06;6057561;23;19917;-80
2023/10/07 07:43:38;;;;;;;57.08;35.13;;;;;;;20.10;65.50;101944.88;6068416;23;20026;-79
2023/10/07 07:48:48;;;;;;;52.35;31.52;;;;;;;20.56;65.05;101998.34;6056287;23;20030;-79
2023/10/07 07:51:17;;;;;;;48.05;32.65;;;;;;;20.97;64.32;102044.22;6052388;23;20022;-78
2023/10/07 07:53:44;;;;;;;48.17;29.80;;;;;;;21.12;63.13;102046.06;6049413;23;20030;-82
2023/10/07 07:56:15;;;;;;;47.60;31.00;;;;;;;20.80;62.81;101994.78;6057059;23;20022;-81
2023/10/07 07:58:48;;;;;;;46.85;31.60;;;;;;;21.36;62.15;102065.94;6058577;23;20023;-80
2023/10/07 08:01:30;;;;;;;42.58;29.15;;;;;;;21.34;62.17;102054.47;6052159;23;20038;-81
2023/10/07 08:04:09;;;;;;;43.70;29.98;;;;;;;21.31;62.34;102068.28;6051198;23;20074;-81
2023/10/07 08:06:36;;;;;;;54.33;28.70;;;;;;;21.30;61.84;102045.84;6058949;23;20053;-80
2023/10/07 08:09:05;;;;;;;45.38;31.88;;;;;;;21.44;61.68;102063.25;6064533;23;20402;-81
2023/10/07 08:11:35;;;;;;;44.75;29.35;;;;;;;21.30;61.67;102043.16;6059732;23;20039;-80
2023/10/07 08:14:10;;;;;;;44.13;29.90;;;;;;;21.46;62.10;102063.94;6050251;23;20501;-79
2023/10/07 08:16:50;;;;;;;45.78;30.77;;;;;;;21.49;62.17;102066.28;6058985;23;20053;-81
2023/10/07 08:19:23;;;;;;;52.85;31.10;;;;;;;20.48;62.02;101905.59;6050417;23;20073;-80
2023/10/07 08:21:52;;;;;;;50.92;31.52;;;;;;;21.58;62.31;102075.22;6062508;23;20029;-80
2023/10/07 08:24:23;;;;;;;59.00;34.70;;;;;;;21.41;61.83;102025.78;6048582;23;20395;-79
2023/10/07 08:26:59;;;;;;;51.47;33.80;;;;;;;21.54;61.40;102036.88;6059907;23;20106;-79
2023/10/07 08:29:40;;;;;;;55.30;34.30;;;;;;;21.60;60.82;102019.09;6068328;23;20045;-79
2023/10/07 08:32:16;;;;;;;56.25;33.28;;;;;;;21.74;60.96;102044.56;6077836;23;20018;-79
2023/10/07 08:34:47;;;;;;;54.78;33.08;;;;;;;21.59;61.04;102012.03;6069836;23;20390;-81
2023/10/07 08:37:17;;;;;;;60.33;35.03;;;;;;;21.87;60.38;102052.97;6067980;23;20028;-82
2023/10/07 08:39:44;;;;;;;60.38;37.92;;;;;;;22.05;60.37;102070.81;6059766;23;20403;-81
2023/10/07 08:42:26;;;;;;;63.20;39.65;;;;;;;22.23;59.39;102062.44;6033144;23;20037;-80
2023/10/07 08:44:59;;;;;;;56.60;37.15;;;;;;;22.17;59.40;102053.16;6014169;23;20045;-80
2023/10/07 08:47:43;;;;;;;60.90;39.13;;;;;;;22.24;60.07;102064.16;6012084;23;20105;-79
2023/10/07 08:50:29;;;;;;;61.35;39.30;;;;;;;22.07;59.95;102037.16;6046055;23;20057;-79
2023/10/07 08:53:07;;;;;;;65.53;38.45;;;;;;;22.23;59.73;102052.47;6072474;23;20385;-80
2023/10/07 08:55:40;;;;;;;56.80;35.90;;;;;;;22.56;58.70;102060.38;6078967;23;20019;-81
2023/10/07 08:58:11;;;;;;;58.05;37.33;;;;;;;22.15;58.49;101971.34;6052738;23;20023;-82
2023/10/07 09:00:45;;;;;;;60.28;36.30;;;;;;;22.80;58.14;102059.34;6060961;23;20026;-80
2023/10/07 09:03:16;;;;;;;54.60;36.10;;;;;;;22.94;57.96;102071.25;6056243;23;20409;-81
2023/10/07 09:05:53;;;;;;;60.42;36.42;;;;;;;22.97;57.59;102043.81;6092280;23;20109;-78
2023/10/07 09:08:22;;;;;;;54.80;36.67;;;;;;;23.09;57.20;102061.31;6035237;23;20046;-80
2023/10/07 09:10:55;;;;;;;54.95;36.58;;;;;;;23.00;57.28;102019.91;6020232;23;20018;-79
2023/10/07 09:13:31;;;;;;;52.90;34.92;;;;;;;23.47;56.91;102066.66;6058189;23;20027;-79
2023/10/07 09:16:10;;;;;;;58.38;36.78;;;;;;;23.51;56.33;102061.72;6070550;23;20022;-79
2023/10/07 09:18:44;;;;;;;60.50;36.42;;;;;;;23.61;55.93;102052.28;6074610;23;20114;-79
2023/10/07 09:21:22;;;;;;;54.33;32.78;;;;;;;23.75;55.82;102068.78;6050866;23;20028;-79
2023/10/07 09:23:59;;;;;;;56.08;35.33;;;;;;;23.87;55.54;102067.25;6024270;23;20131;-79
2023/10/07 09:26:36;;;;;;;55.00;34.08;;;;;;;23.66;55.11;102005.63;6044338;23;20142;-79
2023/10/07 09:29:21;;;;;;;54.75;35.17;;;;;;;23.90;55.07;102028.91;6064192;23;20018;-80
2023/10/07 09:32:05;;;;;;;55.80;34.38;;;;;;;24.08;55.33;102058.34;6058863;23;20101;-79
2023/10/07 09:34:48;;;;;;;59.65;34.63;;;;;;;24.26;55.55;102060.63;6054425;23;20029;-79
2023/10/07 09:37:21;;;;;;;62.67;37.13;;;;;;;24.39;55.20;102058.03;6069067;23;20562;-79
2023/10/07 09:41:05;;;;;;;61.00;38.67;;;;;;;24.00;54.67;101977.91;6052476;23;20085;-79
2023/10/07 09:43:13;;;;;;;63.83;39.58;;;;;;;24.40;54.33;102024.47;6070182;23;20018;-81
2023/10/07 09:45:41;;;;;;;64.00;37.75;;;;;;;24.72;54.42;102054.84;6072284;23;20023;-80
2023/10/07 09:48:09;;;;;;;64.93;38.97;;;;;;;24.90;53.71;102057.97;6062225;23;20452;-80
2023/10/07 09:50:42;;;;;;;60.10;37.25;;;;;;;24.92;53.70;102042.28;6076793;23;20023;-79
2023/10/07 09:53:18;;;;;;;61.35;38.83;;;;;;;24.80;53.06;102005.00;6076851;23;20074;-79
2023/10/07 09:56:11;;;;;;;64.57;39.85;;;;;;;25.32;51.88;102056.19;6072032;23;20030;-80
2023/10/07 09:58:52;;;;;;;55.97;36.45;;;;;;;25.34;52.52;102054.13;6102608;23;20023;-80
2023/10/07 10:01:54;;;;;;;67.13;38.38;;;;;;;25.50;51.81;102052.94;6060665;23;20485;-81
2023/10/07 10:04:49;;;;;;;61.75;37.15;;;;;;;25.62;52.19;102050.50;6094075;23;20026;-80
2023/10/07 10:07:56;;;;;;;66.65;39.00;;;;;;;25.82;51.50;102049.75;6084277;23;20018;-78
2023/10/07 10:10:33;;;;;;;68.88;39.78;;;;;;;26.03;50.97;102052.41;6075454;23;20049;-78
2023/10/07 10:18:35;;;;;;;72.93;40.35;;;;;;;26.34;50.01;102042.84;6080052;23;20022;-79
2023/10/07 10:21:04;;;;;;;65.03;41.53;;;;;;;26.47;49.09;102044.75;6079158;23;20018;-81
2023/10/07 10:23:37;;;;;;;63.65;37.75;;;;;;;26.56;49.71;102041.66;6069527;23;20308;-82
2023/10/07 10:26:14;;;;;;;64.45;39.45;;;;;;;26.66;49.63;102029.53;6067435;23;20030;-81
2023/10/07 10:29:00;;;;;;;58.92;35.38;;;;;;;26.84;49.04;102013.38;6062335;23;20426;-81
2023/10/07 10:31:32;;;;;;;57.67;35.72;;;;;;;27.05;48.01;102012.31;6067192;23;20020;-80
2023/10/07 10:34:22;;;;;;;56.88;34.85;;;;;;;27.11;47.76;102007.88;6076103;23;20597;-81
2023/10/07 10:36:51;;;;;;;67.70;42.65;;;;;;;27.18;47.34;101995.09;6069424;23;20054;-81
2023/10/07 10:39:31;;;;;;;67.82;39.22;;;;;;;27.32;46.65;102010.38;6059947;23;20583;-80
2023/10/07 10:42:13;;;;;;;70.47;39.83;;;;;;;27.10;46.63;101949.00;6057769;23;20280;-81
2023/10/07 10:44:48;;;;;;;67.95;38.08;;;;;;;27.54;46.14;101996.47;6040006;23;20277;-80
2023/10/07 10:47:29;;;;;;;54.85;35.40;;;;;;;27.45;46.58;101958.56;6027514;23;20168;-81
2023/10/07 10:50:16;;;;;;;69.22;38.00;;;;;;;27.67;46.00;101980.03;5997682;23;20384;-81
2023/10/07 10:52:48;;;;;;;58.03;36.08;;;;;;;27.84;46.11;101978.53;6060906;23;20105;-81
2023/10/07 10:55:17;;;;;;;62.85;39.60;;;;;;;27.73;45.47;101932.81;6065545;23;20026;-80
2023/10/07 10:57:44;;;;;;;69.55;38.30;;;;;;;27.90;45.25;101944.91;6068071;23;20061;-80
2023/10/07 11:00:22;;;;;;;62.03;35.90;;;;;;;27.76;45.47;101896.06;6063956;23;20014;-81
2023/10/07 11:02:54;;;;;;;64.95;36.65;;;;;;;28.26;44.93;101946.13;6036254;23;20089;-82
2023/10/07 11:05:25;;;;;;;75.28;41.88;;;;;;;28.46;43.77;101950.63;6073825;23;20034;-81
2023/10/07 11:07:54;;;;;;;68.55;40.40;;;;;;;28.54;43.67;101961.25;6075774;23;20101;-80
2023/10/07 11:10:24;;;;;;;70.50;39.30;;;;;;;28.63;43.03;101957.19;6073050;23;20323;-79
2023/10/07 11:12:56;;;;;;;65.68;40.08;;;;;;;27.52;43.39;101788.59;6075183;23;20305;-81
2023/10/07 11:15:29;;;;;;;66.93;40.42;;;;;;;28.55;43.25;101949.28;6082113;23;20089;-81
2023/10/07 11:18:18;;;;;;;73.47;41.58;;;;;;;28.41;43.51;101923.13;6070449;23;20025;-81
2023/10/07 11:20:45;;;;;;;69.78;40.63;;;;;;;28.09;42.85;101887.69;6076721;23;20202;-81
2023/10/07 11:23:17;;;;;;;66.32;40.97;;;;;;;27.94;43.63;101901.66;6068274;23;20018;-81
2023/10/07 11:25:47;;;;;;;71.30;43.03;;;;;;;27.90;44.39;101912.16;6061896;23;20339;-80
2023/10/07 11:28:33;;;;;;;71.65;40.58;;;;;;;27.39;45.10;101839.44;6083710;23;20346;-77
2023/10/07 11:31:00;;;;;;;68.68;42.60;;;;;;;27.71;45.15;101913.09;6067655;23;20553;-81
2023/10/07 11:33:28;;;;;;;70.65;41.85;;;;;;;27.49;45.04;101882.59;6055258;23;20343;-79
2023/10/07 11:36:02;;;;;;;70.40;39.30;;;;;;;27.33;45.64;101866.72;6046403;23;20446;-81
2023/10/07 11:38:34;;;;;;;64.68;39.90;;;;;;;27.48;45.87;101916.38;6066772;23;20025;-80
2023/10/07 11:41:06;;;;;;;73.05;41.88;;;;;;;27.31;45.67;101896.09;6056147;23;20509;-80
2023/10/07 11:43:43;;;;;;;66.68;39.83;;;;;;;27.19;45.80;101888.59;6071840;23;20050;-78
2023/10/07 11:46:14;;;;;;;68.93;40.65;;;;;;;27.25;46.56;101895.06;6060422;23;20357;-80
2023/10/07 11:48:48;;;;;;;57.72;36.88;;;;;;;27.27;46.66;101907.44;6067868;23;20488;-79
2023/10/07 11:51:17;;;;;;;77.95;44.10;;;;;;;27.02;46.25;101877.31;6073791;23;20434;-80
2023/10/07 11:53:50;;;;;;;76.22;41.45;;;;;;;26.92;46.51;101887.84;6081822;23;20402;-80
2023/10/07 11:56:19;;;;;;;74.45;39.40;;;;;;;26.32;46.58;101783.63;6064299;23;20029;-79
2023/10/07 11:58:46;;;;;;;63.45;37.17;;;;;;;26.86;47.07;101883.22;6065062;23;20454;-79
2023/10/07 12:01:20;;;;;;;81.57;43.08;;;;;;;26.91;46.70;101896.22;6072157;23;20033;-80
2023/10/07 12:03:53;;;;;;;68.57;37.67;;;;;;;26.38;47.03;101815.41;6062931;23;20090;-80
2023/10/07 12:06:25;;;;;;;74.18;42.90;;;;;;;26.85;46.78;101881.56;6041814;23;20036;-80
2023/10/07 12:09:06;;;;;;;67.70;37.97;;;;;;;26.76;46.80;101861.03;6056435;23;20311;-79
2023/10/07 12:11:33;;;;;;;74.43;41.00;;;;;;;26.93;46.73;101875.88;6056368;23;20033;-79
2023/10/07 12:14:01;;;;;;;70.95;40.80;;;;;;;26.85;46.51;101873.38;6067017;23;20346;-78
2023/10/07 12:16:29;;;;;;;69.55;39.33;;;;;;;26.72;46.60;101844.28;6074783;23;20077;-79
2023/10/07 12:18:58;;;;;;;64.03;37.95;;;;;;;26.75;47.01;101856.63;6066005;23;20033;-79
2023/10/07 12:21:27;;;;;;;69.93;36.17;;;;;;;26.79;47.20;101857.88;6080388;23;20014;-79
2023/10/07 12:23:54;;;;;;;60.28;37.35;;;;;;;26.63;48.51;101854.59;6057711;23;20022;-80
2023/10/07 12:26:26;;;;;;;72.63;41.13;;;;;;;26.67;47.41;101854.16;6059334;23;20026;-81
2023/10/07 12:28:56;;;;;;;58.90;36.17;;;;;;;26.90;47.29;101873.59;6076042;23;20073;-78
2023/10/07 12:31:24;;;;;;;72.13;41.70;;;;;;;26.82;46.63;101860.19;6071413;23;20369;-78
2023/10/07 12:33:51;;;;;;;63.78;37.10;;;;;;;26.83;47.23;101872.75;6071608;23;20094;-81
2023/10/07 12:36:23;;;;;;;63.45;39.00;;;;;;;26.61;47.22;101853.97;6062154;23;20082;-79
2023/10/07 12:38:58;;;;;;;70.53;38.83;;;;;;;25.92;47.59;101743.69;6077590;23;20321;-79
2023/10/07 12:41:26;;;;;;;75.45;43.67;;;;;;;26.71;47.25;101871.75;6066792;23;20466;-80